sensor_id;sensor_type;location;lat;lon;timestamp;temperature;humidity
67899;DHT22;54699;51.796;10.956;2023-02-28T00:00:48;16.00;47.30
67899;DHT22;54699;51.796;10.956;2023-02-28T00:03:16;16.00;47.30
67899;DHT22;54699;51.796;10.956;2023-02-28T00:05:43;16.10;47.40
67899;DHT22;54699;51.796;10.956;2023-02-28T00:08:10;16.00;47.40
67899;DHT22;54699;51.796;10.956;2023-02-28T00:10:38;16.00;47.30
67899;DHT22;54699;51.796;10.956;2023-02-28T00:13:06;16.00;47.40
67899;DHT22;54699;51.796;10.956;2023-02-28T00:15:36;16.00;47.30
67899;DHT22;54699;51.796;10.956;2023-02-28T00:18:03;16.00;47.30
67899;DHT22;54699;51.796;10.956;2023-02-28T00:20:31;16.00;47.30
67899;DHT22;54699;51.796;10.956;2023-02-28T00:22:58;16.00;47.30
67899;DHT22;54699;51.796;10.956;2023-02-28T00:25:25;16.00;47.30
67899;DHT22;54699;51.796;10.956;2023-02-28T00:27:52;16.00;47.30
67899;DHT22;54699;51.796;10.956;2023-02-28T00:30:20;16.00;47.30
67899;DHT22;54699;51.796;10.956;2023-02-28T00:32:48;16.00;47.30
67899;DHT22;54699;51.796;10.956;2023-02-28T00:35:17;16.00;47.40
67899;DHT22;54699;51.796;10.956;2023-02-28T00:37:45;16.00;47.30
67899;DHT22;54699;51.796;10.956;2023-02-28T00:40:14;16.00;47.30
67899;DHT22;54699;51.796;10.956;2023-02-28T00:42:41;16.00;47.30
67899;DHT22;54699;51.796;10.956;2023-02-28T00:45:08;16.00;47.30
67899;DHT22;54699;51.796;10.956;2023-02-28T00:47:35;16.00;47.30
67899;DHT22;54699;51.796;10.956;2023-02-28T00:50:02;16.00;47.30
67899;DHT22;54699;51.796;10.956;2023-02-28T00:52:29;16.00;47.30
67899;DHT22;54699;51.796;10.956;2023-02-28T00:54:57;16.00;47.30
67899;DHT22;54699;51.796;10.956;2023-02-28T00:57:24;16.00;47.30
67899;DHT22;54699;51.796;10.956;2023-02-28T00:59:53;16.00;47.30
67899;DHT22;54699;51.796;10.956;2023-02-28T01:02:20;16.00;47.30
67899;DHT22;54699;51.796;10.956;2023-02-28T01:04:48;16.00;47.20
67899;DHT22;54699;51.796;10.956;2023-02-28T01:07:17;16.00;47.20
67899;DHT22;54699;51.796;10.956;2023-02-28T01:09:43;16.00;47.20
67899;DHT22;54699;51.796;10.956;2023-02-28T01:12:11;16.00;47.30
67899;DHT22;54699;51.796;10.956;2023-02-28T01:14:38;16.00;47.30
67899;DHT22;54699;51.796;10.956;2023-02-28T01:17:05;16.00;47.30
67899;DHT22;54699;51.796;10.956;2023-02-28T01:19:32;16.00;47.20
67899;DHT22;54699;51.796;10.956;2023-02-28T01:22:00;16.00;47.30
67899;DHT22;54699;51.796;10.956;2023-02-28T01:24:27;16.00;47.20
67899;DHT22;54699;51.796;10.956;2023-02-28T01:26:54;16.00;47.30
67899;DHT22;54699;51.796;10.956;2023-02-28T01:29:23;16.00;47.20
67899;DHT22;54699;51.796;10.956;2023-02-28T01:31:50;16.00;47.30
67899;DHT22;54699;51.796;10.956;2023-02-28T01:34:17;16.00;47.30
67899;DHT22;54699;51.796;10.956;2023-02-28T01:36:44;15.90;47.20
67899;DHT22;54699;51.796;10.956;2023-02-28T01:39:11;15.90;47.20
67899;DHT22;54699;51.796;10.956;2023-02-28T01:41:39;15.90;47.20
67899;DHT22;54699;51.796;10.956;2023-02-28T01:47:10;15.90;47.10
67899;DHT22;54699;51.796;10.956;2023-02-28T01:49:37;15.90;47.10
67899;DHT22;54699;51.796;10.956;2023-02-28T01:52:04;15.90;47.20
67899;DHT22;54699;51.796;10.956;2023-02-28T01:54:33;16.00;47.20
67899;DHT22;54699;51.796;10.956;2023-02-28T01:57:02;16.00;47.20
67899;DHT22;54699;51.796;10.956;2023-02-28T01:59:33;15.90;47.10
67899;DHT22;54699;51.796;10.956;2023-02-28T02:02:05;15.90;47.20
67899;DHT22;54699;51.796;10.956;2023-02-28T02:04:37;15.90;47.20
67899;DHT22;54699;51.796;10.956;2023-02-28T02:07:07;15.90;47.10
67899;DHT22;54699;51.796;10.956;2023-02-28T02:09:35;16.00;47.20
67899;DHT22;54699;51.796;10.956;2023-02-28T02:12:02;15.90;47.20
67899;DHT22;54699;51.796;10.956;2023-02-28T02:14:44;15.90;47.20
67899;DHT22;54699;51.796;10.956;2023-02-28T02:17:26;15.90;47.20
67899;DHT22;54699;51.796;10.956;2023-02-28T02:26:21;15.90;47.10
67899;DHT22;54699;51.796;10.956;2023-02-28T02:29:19;15.90;47.10
67899;DHT22;54699;51.796;10.956;2023-02-28T02:32:05;15.90;47.20
67899;DHT22;54699;51.796;10.956;2023-02-28T02:34:53;15.90;47.10
67899;DHT22;54699;51.796;10.956;2023-02-28T02:37:29;15.90;47.20
67899;DHT22;54699;51.796;10.956;2023-02-28T02:40:07;15.90;47.20
67899;DHT22;54699;51.796;10.956;2023-02-28T02:42:40;15.90;47.20
67899;DHT22;54699;51.796;10.956;2023-02-28T02:45:12;15.90;47.10
67899;DHT22;54699;51.796;10.956;2023-02-28T02:47:44;15.90;47.10
67899;DHT22;54699;51.796;10.956;2023-02-28T02:50:13;15.90;47.10
67899;DHT22;54699;51.796;10.956;2023-02-28T02:52:46;15.90;47.20
67899;DHT22;54699;51.796;10.956;2023-02-28T02:55:20;15.90;47.10
67899;DHT22;54699;51.796;10.956;2023-02-28T02:57:50;15.90;47.10
67899;DHT22;54699;51.796;10.956;2023-02-28T03:00:22;15.90;47.10
67899;DHT22;54699;51.796;10.956;2023-02-28T03:02:52;15.90;47.10
67899;DHT22;54699;51.796;10.956;2023-02-28T03:05:24;15.90;48.00
67899;DHT22;54699;51.796;10.956;2023-02-28T03:07:53;15.90;47.10
67899;DHT22;54699;51.796;10.956;2023-02-28T03:13:11;15.90;47.20
67899;DHT22;54699;51.796;10.956;2023-02-28T03:15:52;15.90;47.10
67899;DHT22;54699;51.796;10.956;2023-02-28T03:18:32;15.90;47.10
67899;DHT22;54699;51.796;10.956;2023-02-28T03:21:06;15.90;47.10
67899;DHT22;54699;51.796;10.956;2023-02-28T03:23:44;15.90;47.10
67899;DHT22;54699;51.796;10.956;2023-02-28T03:26:18;15.90;47.10
67899;DHT22;54699;51.796;10.956;2023-02-28T03:28:51;15.80;47.10
67899;DHT22;54699;51.796;10.956;2023-02-28T03:31:26;15.90;47.10
67899;DHT22;54699;51.796;10.956;2023-02-28T03:33:58;15.80;47.00
67899;DHT22;54699;51.796;10.956;2023-02-28T03:36:30;15.90;47.10
67899;DHT22;54699;51.796;10.956;2023-02-28T03:39:09;15.80;47.10
67899;DHT22;54699;51.796;10.956;2023-02-28T03:41:42;15.80;47.10
67899;DHT22;54699;51.796;10.956;2023-02-28T03:44:16;15.80;47.10
67899;DHT22;54699;51.796;10.956;2023-02-28T03:46:48;15.80;47.10
67899;DHT22;54699;51.796;10.956;2023-02-28T03:49:20;15.90;47.10
67899;DHT22;54699;51.796;10.956;2023-02-28T03:51:51;15.80;47.10
67899;DHT22;54699;51.796;10.956;2023-02-28T03:54:22;15.80;47.00
67899;DHT22;54699;51.796;10.956;2023-02-28T03:56:56;15.80;47.00
67899;DHT22;54699;51.796;10.956;2023-02-28T03:59:30;15.80;47.00
67899;DHT22;54699;51.796;10.956;2023-02-28T04:02:02;15.80;46.90
67899;DHT22;54699;51.796;10.956;2023-02-28T04:04:28;15.80;47.00
67899;DHT22;54699;51.796;10.956;2023-02-28T04:07:02;15.80;47.00
67899;DHT22;54699;51.796;10.956;2023-02-28T04:09:30;15.80;46.90
67899;DHT22;54699;51.796;10.956;2023-02-28T04:11:57;15.80;46.90
67899;DHT22;54699;51.796;10.956;2023-02-28T04:14:24;15.80;46.90
67899;DHT22;54699;51.796;10.956;2023-02-28T04:16:50;15.80;46.80
67899;DHT22;54699;51.796;10.956;2023-02-28T04:19:17;15.80;46.90
67899;DHT22;54699;51.796;10.956;2023-02-28T04:21:45;15.80;46.90
67899;DHT22;54699;51.796;10.956;2023-02-28T04:24:15;15.80;46.90
67899;DHT22;54699;51.796;10.956;2023-02-28T04:26:44;15.80;46.80
67899;DHT22;54699;51.796;10.956;2023-02-28T04:29:12;15.80;47.70
67899;DHT22;54699;51.796;10.956;2023-02-28T04:31:40;15.80;46.80
67899;DHT22;54699;51.796;10.956;2023-02-28T04:34:07;15.80;47.70
67899;DHT22;54699;51.796;10.956;2023-02-28T04:36:34;15.80;46.90
67899;DHT22;54699;51.796;10.956;2023-02-28T04:39:01;15.80;46.70
67899;DHT22;54699;51.796;10.956;2023-02-28T04:41:30;15.80;46.80
67899;DHT22;54699;51.796;10.956;2023-02-28T04:43:57;15.80;46.70
67899;DHT22;54699;51.796;10.956;2023-02-28T04:46:26;15.80;46.70
67899;DHT22;54699;51.796;10.956;2023-02-28T04:48:54;15.80;46.70
67899;DHT22;54699;51.796;10.956;2023-02-28T04:51:20;15.80;46.80
67899;DHT22;54699;51.796;10.956;2023-02-28T04:53:47;15.80;46.70
67899;DHT22;54699;51.796;10.956;2023-02-28T04:56:15;15.80;46.70
67899;DHT22;54699;51.796;10.956;2023-02-28T04:58:44;15.80;46.70
67899;DHT22;54699;51.796;10.956;2023-02-28T05:01:21;15.80;46.70
67899;DHT22;54699;51.796;10.956;2023-02-28T05:03:50;15.80;46.70
67899;DHT22;54699;51.796;10.956;2023-02-28T05:06:18;15.80;46.70
67899;DHT22;54699;51.796;10.956;2023-02-28T05:08:46;15.70;46.60
67899;DHT22;54699;51.796;10.956;2023-02-28T05:11:15;15.80;46.70
67899;DHT22;54699;51.796;10.956;2023-02-28T05:13:45;15.80;46.70
67899;DHT22;54699;51.796;10.956;2023-02-28T05:16:13;15.70;46.60
67899;DHT22;54699;51.796;10.956;2023-02-28T05:18:40;15.70;47.50
67899;DHT22;54699;51.796;10.956;2023-02-28T05:21:13;15.70;46.60
67899;DHT22;54699;51.796;10.956;2023-02-28T05:23:50;15.70;46.60
67899;DHT22;54699;51.796;10.956;2023-02-28T05:26:16;15.70;46.60
67899;DHT22;54699;51.796;10.956;2023-02-28T05:28:45;15.80;46.70
67899;DHT22;54699;51.796;10.956;2023-02-28T05:31:11;15.70;46.60
67899;DHT22;54699;51.796;10.956;2023-02-28T05:33:38;15.70;46.60
67899;DHT22;54699;51.796;10.956;2023-02-28T05:36:06;15.80;46.70
67899;DHT22;54699;51.796;10.956;2023-02-28T05:38:33;15.80;46.70
67899;DHT22;54699;51.796;10.956;2023-02-28T05:41:04;15.80;46.70
67899;DHT22;54699;51.796;10.956;2023-02-28T05:43:31;15.80;46.30
67899;DHT22;54699;51.796;10.956;2023-02-28T05:46:01;15.80;46.70
67899;DHT22;54699;51.796;10.956;2023-02-28T05:48:31;15.70;46.60
67899;DHT22;54699;51.796;10.956;2023-02-28T05:50:59;15.70;46.70
67899;DHT22;54699;51.796;10.956;2023-02-28T05:53:26;15.70;46.30
67899;DHT22;54699;51.796;10.956;2023-02-28T05:55:53;15.80;46.70
67899;DHT22;54699;51.796;10.956;2023-02-28T05:58:21;15.80;46.10
67899;DHT22;54699;51.796;10.956;2023-02-28T06:00:50;15.60;45.50
67899;DHT22;54699;51.796;10.956;2023-02-28T06:03:19;15.60;46.30
67899;DHT22;54699;51.796;10.956;2023-02-28T06:05:46;15.70;45.60
67899;DHT22;54699;51.796;10.956;2023-02-28T06:08:13;15.70;45.60
67899;DHT22;54699;51.796;10.956;2023-02-28T06:10:42;15.70;44.60
67899;DHT22;54699;51.796;10.956;2023-02-28T06:13:14;15.80;43.60
67899;DHT22;54699;51.796;10.956;2023-02-28T06:15:41;15.70;43.40
67899;DHT22;54699;51.796;10.956;2023-02-28T06:18:08;15.70;45.70
67899;DHT22;54699;51.796;10.956;2023-02-28T06:20:36;15.80;46.00
67899;DHT22;54699;51.796;10.956;2023-02-28T06:23:03;15.80;46.00
67899;DHT22;54699;51.796;10.956;2023-02-28T06:25:34;15.80;46.00
67899;DHT22;54699;51.796;10.956;2023-02-28T06:28:02;15.80;46.00
67899;DHT22;54699;51.796;10.956;2023-02-28T06:30:29;15.80;45.90
67899;DHT22;54699;51.796;10.956;2023-02-28T06:32:57;15.80;45.90
67899;DHT22;54699;51.796;10.956;2023-02-28T06:35:24;15.80;45.70
67899;DHT22;54699;51.796;10.956;2023-02-28T06:37:55;15.80;45.80
67899;DHT22;54699;51.796;10.956;2023-02-28T06:40:28;15.70;45.30
67899;DHT22;54699;51.796;10.956;2023-02-28T06:42:57;15.70;46.20
67899;DHT22;54699;51.796;10.956;2023-02-28T06:45:27;15.70;45.70
67899;DHT22;54699;51.796;10.956;2023-02-28T06:48:10;15.70;45.80
67899;DHT22;54699;51.796;10.956;2023-02-28T06:50:41;15.70;45.20
67899;DHT22;54699;51.796;10.956;2023-02-28T06:53:10;15.70;45.30
67899;DHT22;54699;51.796;10.956;2023-02-28T06:55:38;15.70;44.70
67899;DHT22;54699;51.796;10.956;2023-02-28T06:58:08;15.70;44.80
67899;DHT22;54699;51.796;10.956;2023-02-28T07:00:49;15.60;45.70
67899;DHT22;54699;51.796;10.956;2023-02-28T07:03:18;15.60;44.10
67899;DHT22;54699;51.796;10.956;2023-02-28T07:05:47;15.60;44.80
67899;DHT22;54699;51.796;10.956;2023-02-28T07:08:15;15.60;44.80
67899;DHT22;54699;51.796;10.956;2023-02-28T07:10:43;15.60;43.20
67899;DHT22;54699;51.796;10.956;2023-02-28T07:13:11;15.70;45.50
67899;DHT22;54699;51.796;10.956;2023-02-28T07:15:41;15.70;45.30
67899;DHT22;54699;51.796;10.956;2023-02-28T07:18:09;15.80;45.50
67899;DHT22;54699;51.796;10.956;2023-02-28T07:20:39;15.80;45.40
67899;DHT22;54699;51.796;10.956;2023-02-28T07:23:07;15.80;45.40
67899;DHT22;54699;51.796;10.956;2023-02-28T07:25:36;15.80;45.30
67899;DHT22;54699;51.796;10.956;2023-02-28T07:28:06;15.80;45.20
67899;DHT22;54699;51.796;10.956;2023-02-28T07:30:35;15.80;45.10
67899;DHT22;54699;51.796;10.956;2023-02-28T07:33:04;15.90;45.10
67899;DHT22;54699;51.796;10.956;2023-02-28T07:35:35;15.80;45.10
67899;DHT22;54699;51.796;10.956;2023-02-28T07:38:03;15.80;45.10
67899;DHT22;54699;51.796;10.956;2023-02-28T07:40:30;15.80;45.10
67899;DHT22;54699;51.796;10.956;2023-02-28T07:43:00;15.80;45.10
67899;DHT22;54699;51.796;10.956;2023-02-28T07:45:32;15.80;45.10
67899;DHT22;54699;51.796;10.956;2023-02-28T07:48:00;15.80;45.10
67899;DHT22;54699;51.796;10.956;2023-02-28T07:50:30;15.90;45.10
67899;DHT22;54699;51.796;10.956;2023-02-28T07:53:01;15.90;45.20
67899;DHT22;54699;51.796;10.956;2023-02-28T07:55:28;15.80;45.10
67899;DHT22;54699;51.796;10.956;2023-02-28T07:57:56;15.80;45.20
67899;DHT22;54699;51.796;10.956;2023-02-28T08:00:25;15.80;45.10
67899;DHT22;54699;51.796;10.956;2023-02-28T08:02:52;15.90;45.20
67899;DHT22;54699;51.796;10.956;2023-02-28T08:05:22;15.90;45.20
67899;DHT22;54699;51.796;10.956;2023-02-28T08:07:49;15.90;45.10
67899;DHT22;54699;51.796;10.956;2023-02-28T08:10:22;15.90;45.10
67899;DHT22;54699;51.796;10.956;2023-02-28T08:12:50;15.90;45.20
67899;DHT22;54699;51.796;10.956;2023-02-28T08:15:17;15.90;45.20
67899;DHT22;54699;51.796;10.956;2023-02-28T08:17:45;15.90;45.30
67899;DHT22;54699;51.796;10.956;2023-02-28T08:20:15;15.90;45.60
67899;DHT22;54699;51.796;10.956;2023-02-28T08:22:42;15.90;45.30
67899;DHT22;54699;51.796;10.956;2023-02-28T08:25:09;15.90;45.30
67899;DHT22;54699;51.796;10.956;2023-02-28T08:27:36;15.90;45.30
67899;DHT22;54699;51.796;10.956;2023-02-28T08:30:03;15.90;45.20
67899;DHT22;54699;51.796;10.956;2023-02-28T08:32:32;15.90;45.30
67899;DHT22;54699;51.796;10.956;2023-02-28T08:35:08;15.90;45.20
67899;DHT22;54699;51.796;10.956;2023-02-28T08:37:41;15.80;43.60
67899;DHT22;54699;51.796;10.956;2023-02-28T08:40:15;15.80;44.20
67899;DHT22;54699;51.796;10.956;2023-02-28T08:42:45;15.90;43.20
67899;DHT22;54699;51.796;10.956;2023-02-28T08:45:17;15.90;44.70
67899;DHT22;54699;51.796;10.956;2023-02-28T08:47:44;16.00;45.00
67899;DHT22;54699;51.796;10.956;2023-02-28T08:50:24;16.10;45.00
67899;DHT22;54699;51.796;10.956;2023-02-28T08:53:09;16.20;45.10
67899;DHT22;54699;51.796;10.956;2023-02-28T08:55:42;16.30;45.40
67899;DHT22;54699;51.796;10.956;2023-02-28T08:58:14;16.30;45.40
67899;DHT22;54699;51.796;10.956;2023-02-28T09:00:57;16.40;45.30
67899;DHT22;54699;51.796;10.956;2023-02-28T09:03:27;16.40;45.10
67899;DHT22;54699;51.796;10.956;2023-02-28T09:05:56;16.40;44.80
67899;DHT22;54699;51.796;10.956;2023-02-28T09:08:26;16.40;45.10
67899;DHT22;54699;51.796;10.956;2023-02-28T09:10:56;16.40;44.40
67899;DHT22;54699;51.796;10.956;2023-02-28T09:13:28;16.40;41.50
67899;DHT22;54699;51.796;10.956;2023-02-28T09:16:00;16.40;43.00
67899;DHT22;54699;51.796;10.956;2023-02-28T09:18:28;16.40;44.80
67899;DHT22;54699;51.796;10.956;2023-02-28T09:20:59;16.30;44.50
67899;DHT22;54699;51.796;10.956;2023-02-28T09:23:29;16.40;45.00
67899;DHT22;54699;51.796;10.956;2023-02-28T09:26:03;16.40;44.70
67899;DHT22;54699;51.796;10.956;2023-02-28T09:28:31;16.40;44.80
67899;DHT22;54699;51.796;10.956;2023-02-28T09:30:58;16.40;44.40
67899;DHT22;54699;51.796;10.956;2023-02-28T09:33:26;16.40;44.50
67899;DHT22;54699;51.796;10.956;2023-02-28T09:35:57;16.40;44.70
67899;DHT22;54699;51.796;10.956;2023-02-28T09:38:30;16.50;44.30
67899;DHT22;54699;51.796;10.956;2023-02-28T09:40:58;16.50;44.30
67899;DHT22;54699;51.796;10.956;2023-02-28T09:43:29;16.50;44.50
67899;DHT22;54699;51.796;10.956;2023-02-28T09:46:02;16.50;44.50
67899;DHT22;54699;51.796;10.956;2023-02-28T09:48:41;16.60;44.50
67899;DHT22;54699;51.796;10.956;2023-02-28T09:51:18;16.60;43.60
67899;DHT22;54699;51.796;10.956;2023-02-28T09:53:56;16.60;42.10
67899;DHT22;54699;51.796;10.956;2023-02-28T09:56:25;16.70;44.00
67899;DHT22;54699;51.796;10.956;2023-02-28T09:58:58;16.70;42.80
67899;DHT22;54699;51.796;10.956;2023-02-28T10:01:30;16.80;43.60
67899;DHT22;54699;51.796;10.956;2023-02-28T10:04:05;16.80;42.90
67899;DHT22;54699;51.796;10.956;2023-02-28T10:06:44;16.80;41.80
67899;DHT22;54699;51.796;10.956;2023-02-28T10:09:15;16.90;42.50
67899;DHT22;54699;51.796;10.956;2023-02-28T10:11:47;16.90;42.70
67899;DHT22;54699;51.796;10.956;2023-02-28T10:14:19;16.90;42.50
67899;DHT22;54699;51.796;10.956;2023-02-28T10:16:50;16.90;42.50
67899;DHT22;54699;51.796;10.956;2023-02-28T10:19:25;17.00;41.10
67899;DHT22;54699;51.796;10.956;2023-02-28T10:21:59;17.00;42.00
67899;DHT22;54699;51.796;10.956;2023-02-28T10:24:32;17.00;42.10
67899;DHT22;54699;51.796;10.956;2023-02-28T10:27:06;17.10;42.30
67899;DHT22;54699;51.796;10.956;2023-02-28T10:29:42;17.10;40.50
67899;DHT22;54699;51.796;10.956;2023-02-28T10:32:12;17.10;41.00
67899;DHT22;54699;51.796;10.956;2023-02-28T10:34:47;17.20;41.80
67899;DHT22;54699;51.796;10.956;2023-02-28T10:37:22;17.20;41.70
67899;DHT22;54699;51.796;10.956;2023-02-28T10:40:03;17.30;41.00
67899;DHT22;54699;51.796;10.956;2023-02-28T10:42:54;17.30;42.00
67899;DHT22;54699;51.796;10.956;2023-02-28T10:45:26;16.80;32.20
67899;DHT22;54699;51.796;10.956;2023-02-28T10:48:02;16.10;34.20
67899;DHT22;54699;51.796;10.956;2023-02-28T10:50:42;16.30;35.90
67899;DHT22;54699;51.796;10.956;2023-02-28T10:53:32;16.60;36.80
67899;DHT22;54699;51.796;10.956;2023-02-28T10:56:29;16.70;37.30
67899;DHT22;54699;51.796;10.956;2023-02-28T10:59:23;17.00;37.90
67899;DHT22;54699;51.796;10.956;2023-02-28T11:01:59;17.10;39.50
67899;DHT22;54699;51.796;10.956;2023-02-28T11:05:23;17.30;40.30
67899;DHT22;54699;51.796;10.956;2023-02-28T11:07:53;17.50;40.30
67899;DHT22;54699;51.796;10.956;2023-02-28T11:10:26;17.60;38.60
67899;DHT22;54699;51.796;10.956;2023-02-28T11:12:57;17.60;39.40
67899;DHT22;54699;51.796;10.956;2023-02-28T11:15:25;17.70;38.90
67899;DHT22;54699;51.796;10.956;2023-02-28T11:17:55;17.70;39.90
67899;DHT22;54699;51.796;10.956;2023-02-28T11:20:37;17.80;39.70
67899;DHT22;54699;51.796;10.956;2023-02-28T11:23:05;17.80;39.50
67899;DHT22;54699;51.796;10.956;2023-02-28T11:25:40;17.80;40.00
67899;DHT22;54699;51.796;10.956;2023-02-28T11:28:27;17.80;39.40
67899;DHT22;54699;51.796;10.956;2023-02-28T11:31:00;17.80;39.40
67899;DHT22;54699;51.796;10.956;2023-02-28T11:33:37;17.80;39.20
67899;DHT22;54699;51.796;10.956;2023-02-28T11:36:11;17.80;39.30
67899;DHT22;54699;51.796;10.956;2023-02-28T11:38:42;17.80;39.30
67899;DHT22;54699;51.796;10.956;2023-02-28T11:41:17;17.80;39.30
67899;DHT22;54699;51.796;10.956;2023-02-28T11:44:20;17.80;39.50
67899;DHT22;54699;51.796;10.956;2023-02-28T11:46:58;17.80;39.90
67899;DHT22;54699;51.796;10.956;2023-02-28T11:49:32;17.80;40.70
67899;DHT22;54699;51.796;10.956;2023-02-28T11:52:10;17.90;40.10
67899;DHT22;54699;51.796;10.956;2023-02-28T11:54:54;17.90;40.20
67899;DHT22;54699;51.796;10.956;2023-02-28T11:57:35;17.90;40.30
67899;DHT22;54699;51.796;10.956;2023-02-28T12:00:22;17.90;40.50
67899;DHT22;54699;51.796;10.956;2023-02-28T12:03:01;17.90;39.80
67899;DHT22;54699;51.796;10.956;2023-02-28T12:05:38;17.90;38.70
67899;DHT22;54699;51.796;10.956;2023-02-28T12:08:16;17.80;39.80
67899;DHT22;54699;51.796;10.956;2023-02-28T12:10:55;17.90;39.90
67899;DHT22;54699;51.796;10.956;2023-02-28T12:13:36;17.90;40.40
67899;DHT22;54699;51.796;10.956;2023-02-28T12:19:16;17.90;38.30
67899;DHT22;54699;51.796;10.956;2023-02-28T12:21:59;18.00;40.90
67899;DHT22;54699;51.796;10.956;2023-02-28T12:24:41;18.00;41.20
67899;DHT22;54699;51.796;10.956;2023-02-28T12:27:21;18.00;40.20
67899;DHT22;54699;51.796;10.956;2023-02-28T12:32:46;18.10;40.30
67899;DHT22;54699;51.796;10.956;2023-02-28T12:35:21;18.10;40.70
67899;DHT22;54699;51.796;10.956;2023-02-28T12:37:52;18.10;41.10
67899;DHT22;54699;51.796;10.956;2023-02-28T12:40:25;18.20;40.50
67899;DHT22;54699;51.796;10.956;2023-02-28T12:43:02;18.20;40.70
67899;DHT22;54699;51.796;10.956;2023-02-28T12:45:39;18.20;39.20
67899;DHT22;54699;51.796;10.956;2023-02-28T12:48:13;18.30;39.40
67899;DHT22;54699;51.796;10.956;2023-02-28T12:50:45;18.30;39.50
67899;DHT22;54699;51.796;10.956;2023-02-28T12:53:17;18.30;38.00
67899;DHT22;54699;51.796;10.956;2023-02-28T12:55:56;18.30;36.90
67899;DHT22;54699;51.796;10.956;2023-02-28T12:58:35;18.30;35.90
67899;DHT22;54699;51.796;10.956;2023-02-28T13:01:26;18.40;36.90
67899;DHT22;54699;51.796;10.956;2023-02-28T13:07:19;18.40;35.90
67899;DHT22;54699;51.796;10.956;2023-02-28T13:10:00;18.40;35.40
67899;DHT22;54699;51.796;10.956;2023-02-28T13:12:37;18.40;35.30
67899;DHT22;54699;51.796;10.956;2023-02-28T13:15:16;18.50;37.50
67899;DHT22;54699;51.796;10.956;2023-02-28T13:17:49;18.50;38.80
67899;DHT22;54699;51.796;10.956;2023-02-28T13:20:19;18.50;39.10
67899;DHT22;54699;51.796;10.956;2023-02-28T13:22:50;18.50;38.10
67899;DHT22;54699;51.796;10.956;2023-02-28T13:35:15;18.50;40.00
67899;DHT22;54699;51.796;10.956;2023-02-28T13:38:09;18.50;40.10
67899;DHT22;54699;51.796;10.956;2023-02-28T13:40:51;18.50;40.10
67899;DHT22;54699;51.796;10.956;2023-02-28T13:43:18;18.50;40.30
67899;DHT22;54699;51.796;10.956;2023-02-28T13:48:33;18.50;40.30
67899;DHT22;54699;51.796;10.956;2023-02-28T13:51:01;18.60;39.70
67899;DHT22;54699;51.796;10.956;2023-02-28T13:54:10;18.60;36.20
67899;DHT22;54699;51.796;10.956;2023-02-28T13:56:48;18.70;35.50
67899;DHT22;54699;51.796;10.956;2023-02-28T13:59:26;18.80;35.30
67899;DHT22;54699;51.796;10.956;2023-02-28T14:02:03;18.90;38.10
67899;DHT22;54699;51.796;10.956;2023-02-28T14:05:00;18.90;38.20
67899;DHT22;54699;51.796;10.956;2023-02-28T14:07:31;18.90;37.40
67899;DHT22;54699;51.796;10.956;2023-02-28T14:10:04;19.00;37.00
67899;DHT22;54699;51.796;10.956;2023-02-28T14:12:53;18.90;37.90
67899;DHT22;54699;51.796;10.956;2023-02-28T14:18:16;18.90;40.00
67899;DHT22;54699;51.796;10.956;2023-02-28T14:20:47;18.90;40.10
67899;DHT22;54699;51.796;10.956;2023-02-28T14:23:31;18.90;40.30
67899;DHT22;54699;51.796;10.956;2023-02-28T14:26:13;18.90;40.00
67899;DHT22;54699;51.796;10.956;2023-02-28T14:29:01;18.90;40.10
67899;DHT22;54699;51.796;10.956;2023-02-28T14:31:44;18.80;40.10
67899;DHT22;54699;51.796;10.956;2023-02-28T14:34:23;18.90;40.20
67899;DHT22;54699;51.796;10.956;2023-02-28T14:37:03;18.90;40.30
67899;DHT22;54699;51.796;10.956;2023-02-28T14:39:34;18.80;40.60
67899;DHT22;54699;51.796;10.956;2023-02-28T14:42:02;18.90;40.40
67899;DHT22;54699;51.796;10.956;2023-02-28T14:44:30;18.90;40.90
67899;DHT22;54699;51.796;10.956;2023-02-28T14:46:58;18.90;40.90
67899;DHT22;54699;51.796;10.956;2023-02-28T14:49:31;18.80;38.80
67899;DHT22;54699;51.796;10.956;2023-02-28T14:52:02;18.80;40.20
67899;DHT22;54699;51.796;10.956;2023-02-28T14:54:36;18.90;39.80
67899;DHT22;54699;51.796;10.956;2023-02-28T14:57:04;18.90;40.20
67899;DHT22;54699;51.796;10.956;2023-02-28T14:59:32;18.90;40.00
67899;DHT22;54699;51.796;10.956;2023-02-28T15:02:16;18.90;41.00
67899;DHT22;54699;51.796;10.956;2023-02-28T15:04:52;19.00;41.20
67899;DHT22;54699;51.796;10.956;2023-02-28T15:07:20;19.00;41.30
67899;DHT22;54699;51.796;10.956;2023-02-28T15:10:07;18.90;41.40
67899;DHT22;54699;51.796;10.956;2023-02-28T15:12:49;19.00;40.80
67899;DHT22;54699;51.796;10.956;2023-02-28T15:15:21;19.00;41.60
67899;DHT22;54699;51.796;10.956;2023-02-28T15:17:52;19.00;41.70
67899;DHT22;54699;51.796;10.956;2023-02-28T15:20:23;19.10;41.90
67899;DHT22;54699;51.796;10.956;2023-02-28T15:22:52;19.00;41.70
67899;DHT22;54699;51.796;10.956;2023-02-28T15:25:24;19.00;41.70
67899;DHT22;54699;51.796;10.956;2023-02-28T15:27:53;19.00;42.50
67899;DHT22;54699;51.796;10.956;2023-02-28T15:30:24;19.00;42.20
67899;DHT22;54699;51.796;10.956;2023-02-28T15:33:04;19.00;41.70
67899;DHT22;54699;51.796;10.956;2023-02-28T15:35:33;19.00;42.20
67899;DHT22;54699;51.796;10.956;2023-02-28T15:38:01;18.90;42.10
67899;DHT22;54699;51.796;10.956;2023-02-28T15:40:35;19.00;42.40
67899;DHT22;54699;51.796;10.956;2023-02-28T15:43:05;19.00;42.60
67899;DHT22;54699;51.796;10.956;2023-02-28T15:45:36;19.00;42.80
67899;DHT22;54699;51.796;10.956;2023-02-28T15:48:12;18.90;42.20
67899;DHT22;54699;51.796;10.956;2023-02-28T15:50:42;18.90;42.50
67899;DHT22;54699;51.796;10.956;2023-02-28T15:53:13;18.90;42.50
67899;DHT22;54699;51.796;10.956;2023-02-28T15:55:45;18.90;42.80
67899;DHT22;54699;51.796;10.956;2023-02-28T15:58:19;18.90;42.60
67899;DHT22;54699;51.796;10.956;2023-02-28T16:01:00;18.90;42.50
67899;DHT22;54699;51.796;10.956;2023-02-28T16:03:38;18.90;42.40
67899;DHT22;54699;51.796;10.956;2023-02-28T16:06:15;18.90;42.30
67899;DHT22;54699;51.796;10.956;2023-02-28T16:08:55;18.90;42.70
67899;DHT22;54699;51.796;10.956;2023-02-28T16:11:23;18.80;42.50
67899;DHT22;54699;51.796;10.956;2023-02-28T16:13:51;18.80;42.80
67899;DHT22;54699;51.796;10.956;2023-02-28T16:16:20;18.80;42.40
67899;DHT22;54699;51.796;10.956;2023-02-28T16:18:49;18.80;43.20
67899;DHT22;54699;51.796;10.956;2023-02-28T16:21:16;18.80;43.50
67899;DHT22;54699;51.796;10.956;2023-02-28T16:23:43;18.70;42.10